Weather at RAF Dallachy Air Base [CLOSED]

Public forecast

Using degrees Celsius for public forecast. Weather courtesy of forecast.io.

Closest aviation weather report (METAR) to RAF Dallachy Air Base

Closest report is RAF Lossiemouth, 9.2 nm (17.1 km) WNW. Retrieved 2021/07/31 03:50 UTC (47 minutes ago):

EGQS 310350Z 34012KT 9999 FEW012 SCT015 BKN020 12/09 Q1006 WHT RMK WHT

Closest aviation forecast (TAF) to RAF Dallachy Air Base

Closest forecast is RAF Lossiemouth, 9.2 nm (17.1 km) WNW. Retrieved 2021-07-31 03:06 UTC (2 hours ago):

TAF EGQS 310106Z 3103/3121 35010KT 9999 FEW010 BKN025 TEMPO 3103/3106 4000 RADZ SCT010 TEMPO 3106/3121 SCT020 PROB30 TEMPO 3106/3121 6000 -SHRA SCT014